createdAt,value
2022-08-18T00:00:42.863Z,5.30
2022-08-18T00:01:42.938Z,4.30
2022-08-18T00:02:43.538Z,6.10
2022-08-18T00:03:55.485Z,6.60
2022-08-18T00:04:49.581Z,5.50
2022-08-18T00:05:43.815Z,5.60
2022-08-18T00:06:42.807Z,4.00
2022-08-18T00:07:42.796Z,5.30
2022-08-18T00:08:42.786Z,7.20
2022-08-18T00:09:42.796Z,6.20
2022-08-18T00:10:42.758Z,5.60
2022-08-18T00:11:42.748Z,6.90
2022-08-18T00:12:42.737Z,8.10
2022-08-18T00:13:42.728Z,5.50
2022-08-18T00:14:42.731Z,5.10
2022-08-18T00:15:49.396Z,6.30
2022-08-18T00:16:43.697Z,5.90
2022-08-18T00:17:42.689Z,5.90
2022-08-18T00:18:42.670Z,6.30
2022-08-18T00:19:47.066Z,4.80
2022-08-18T00:20:43.649Z,4.80
2022-08-18T00:21:42.644Z,5.30
2022-08-18T00:22:42.619Z,4.00
2022-08-18T00:23:42.612Z,4.30
2022-08-18T00:24:47.521Z,4.80
2022-08-18T00:25:43.610Z,6.10
2022-08-18T00:26:42.581Z,4.10
2022-08-18T00:27:42.584Z,4.40
2022-08-18T00:28:42.563Z,4.50
2022-08-18T00:29:42.565Z,4.90
2022-08-18T00:30:42.544Z,5.50
2022-08-18T00:31:42.536Z,6.50
2022-08-18T00:32:42.515Z,5.30
2022-08-18T00:33:42.506Z,3.90
2022-08-18T00:34:42.518Z,5.40
2022-08-18T00:35:42.486Z,5.50
2022-08-18T00:36:42.467Z,5.10
2022-08-18T00:37:42.468Z,4.30
2022-08-18T00:38:42.457Z,4.20
2022-08-18T00:39:46.600Z,5.20
2022-08-18T00:40:43.429Z,5.50
2022-08-18T00:41:42.418Z,6.20
2022-08-18T00:42:42.408Z,4.80
2022-08-18T00:43:42.400Z,6.40
2022-08-18T00:44:42.400Z,4.40
2022-08-18T00:45:42.381Z,5.90
2022-08-18T00:46:42.363Z,5.40
2022-08-18T00:47:43.297Z,5.10
2022-08-18T00:48:48.632Z,3.90
2022-08-18T00:49:43.353Z,7.00
2022-08-18T00:50:42.323Z,3.60
2022-08-18T00:51:42.313Z,4.30
2022-08-18T00:52:42.292Z,5.90
2022-08-18T00:53:42.292Z,4.80
2022-08-18T00:54:42.285Z,4.30
2022-08-18T00:55:46.341Z,6.40
2022-08-18T00:56:43.256Z,6.70
2022-08-18T00:57:42.245Z,4.30
2022-08-18T00:58:42.223Z,5.20
2022-08-18T00:59:42.235Z,7.70
2022-08-18T01:00:42.268Z,5.90
2022-08-18T01:01:42.195Z,6.00
2022-08-18T01:02:42.186Z,6.70
2022-08-18T01:03:42.180Z,4.40
2022-08-18T01:04:42.383Z,5.30
2022-08-18T01:05:42.168Z,4.20
2022-08-18T01:06:42.154Z,5.40
2022-08-18T01:07:42.139Z,7.50
2022-08-18T01:08:42.129Z,6.10
2022-08-18T01:09:42.140Z,4.50
2022-08-18T01:10:42.099Z,5.90
2022-08-18T01:11:42.090Z,5.90
2022-08-18T01:12:45.501Z,4.90
2022-08-18T01:13:42.074Z,5.00
2022-08-18T01:14:42.071Z,4.20
2022-08-18T01:15:42.053Z,4.80
2022-08-18T01:16:53.795Z,6.00
2022-08-18T01:17:43.038Z,4.30
2022-08-18T01:18:42.013Z,5.20
2022-08-18T01:19:42.023Z,6.10
2022-08-18T01:20:41.993Z,5.10
2022-08-18T01:21:41.984Z,5.90
2022-08-18T01:22:41.970Z,5.30
2022-08-18T01:23:41.962Z,4.70
2022-08-18T01:24:41.963Z,5.00
2022-08-18T01:25:41.944Z,5.50
2022-08-18T01:26:44.225Z,5.90
2022-08-18T01:27:41.916Z,4.70
2022-08-18T01:28:41.895Z,5.00
2022-08-18T01:29:43.592Z,5.90
2022-08-18T01:30:41.875Z,5.70
2022-08-18T01:31:54.295Z,7.10
2022-08-18T01:32:42.858Z,6.70
2022-08-18T01:33:42.173Z,7.00
2022-08-18T01:34:41.849Z,5.40
2022-08-18T01:35:42.092Z,5.30
2022-08-18T01:36:41.809Z,5.80
2022-08-18T01:37:41.811Z,7.10
2022-08-18T01:38:41.798Z,5.90
2022-08-18T01:41:22.596Z,7.00
2022-08-18T01:41:24.379Z,5.60
2022-08-18T01:41:42.775Z,6.10
2022-08-18T01:42:41.750Z,5.30
2022-08-18T01:43:41.740Z,4.90
2022-08-18T01:44:41.862Z,4.60
2022-08-18T01:45:41.719Z,5.10
2022-08-18T01:46:41.712Z,5.90
2022-08-18T01:47:47.588Z,6.70
2022-08-18T01:48:42.682Z,5.10
2022-08-18T01:49:41.683Z,7.10
2022-08-18T01:50:41.655Z,4.60
2022-08-18T01:51:41.655Z,5.30
2022-08-18T01:52:41.641Z,7.70
2022-08-18T01:53:41.634Z,4.20
2022-08-18T01:54:41.634Z,4.30
2022-08-18T01:55:41.605Z,5.50
2022-08-18T01:56:41.594Z,6.20
2022-08-18T01:57:41.585Z,5.40
2022-08-18T01:58:41.555Z,4.10
2022-08-18T01:59:41.571Z,4.40
2022-08-18T02:00:41.549Z,4.90
2022-08-18T02:01:45.293Z,5.60
2022-08-18T02:02:42.528Z,4.60
2022-08-18T02:03:41.522Z,6.00
2022-08-18T02:04:41.528Z,4.10
2022-08-18T02:05:41.500Z,5.20
2022-08-18T02:06:47.793Z,6.00
2022-08-18T02:07:45.124Z,4.40
2022-08-18T02:08:42.120Z,6.50
2022-08-18T02:09:41.470Z,5.40
2022-08-18T02:12:01.429Z,3.80
2022-08-18T02:13:01.408Z,4.60
2022-08-18T02:14:01.409Z,6.70
2022-08-18T02:15:01.380Z,5.50
2022-08-18T02:16:01.381Z,4.80
2022-08-18T02:17:02.183Z,5.80
2022-08-18T02:18:01.350Z,5.30
2022-08-18T02:19:01.359Z,3.80
2022-08-18T02:20:01.332Z,4.50
2022-08-18T02:21:01.326Z,4.80
2022-08-18T02:22:01.304Z,5.40
2022-08-18T02:23:01.291Z,3.80
2022-08-18T02:24:01.293Z,5.20
2022-08-18T02:25:01.273Z,3.90
2022-08-18T02:26:01.261Z,5.70
2022-08-18T02:27:01.245Z,4.70
2022-08-18T02:28:01.234Z,4.80
2022-08-18T02:29:01.237Z,5.40
2022-08-18T02:30:01.215Z,3.70
2022-08-18T02:31:01.197Z,4.80
2022-08-18T02:32:01.188Z,6.10
2022-08-18T02:33:01.177Z,5.70
2022-08-18T02:34:01.185Z,4.60
2022-08-18T02:35:01.159Z,5.00
2022-08-18T02:36:01.158Z,5.40
2022-08-18T02:37:01.128Z,5.60
2022-08-18T02:38:01.118Z,4.40
2022-08-18T02:39:01.118Z,7.40
2022-08-18T02:40:01.139Z,4.20
2022-08-18T02:41:01.080Z,5.80
2022-08-18T02:42:01.080Z,5.20
2022-08-18T02:43:01.065Z,5.00
2022-08-18T02:44:01.076Z,3.90
2022-08-18T02:45:01.046Z,5.90
2022-08-18T02:46:01.032Z,5.50
2022-08-18T02:47:01.055Z,4.60
2022-08-18T02:48:01.035Z,5.60
2022-08-18T02:49:00.993Z,5.60
2022-08-18T02:50:00.993Z,4.60
2022-08-18T02:51:00.974Z,6.00
2022-08-18T02:52:00.964Z,7.40
2022-08-18T02:53:00.965Z,5.70
2022-08-18T02:54:00.947Z,4.10
2022-08-18T02:55:00.938Z,4.30
2022-08-18T02:56:00.924Z,5.70
2022-08-18T02:57:00.925Z,4.90
2022-08-18T02:58:00.916Z,6.10
2022-08-18T02:59:00.886Z,4.80
2022-08-18T03:00:00.877Z,5.40
2022-08-18T03:01:00.918Z,4.50
2022-08-18T03:02:00.857Z,5.60
2022-08-18T03:03:00.859Z,3.90
2022-08-18T03:04:00.836Z,5.10
2022-08-18T03:05:00.821Z,5.50
2022-08-18T03:06:00.821Z,6.20
2022-08-18T03:07:00.812Z,6.00
2022-08-18T03:08:00.808Z,5.10
2022-08-18T03:09:00.778Z,6.30
2022-08-18T03:10:05.706Z,6.30
2022-08-18T03:11:01.752Z,4.90
2022-08-18T03:12:00.761Z,5.40
2022-08-18T03:13:00.751Z,5.20
2022-08-18T03:14:00.721Z,4.70
2022-08-18T03:15:00.712Z,4.30
2022-08-18T03:16:00.702Z,5.40
2022-08-18T03:17:00.682Z,5.20
2022-08-18T03:18:00.703Z,5.20
2022-08-18T03:19:00.674Z,6.40
2022-08-18T03:20:01.016Z,6.50
2022-08-18T03:21:00.642Z,5.80
2022-08-18T03:22:02.758Z,5.60
2022-08-18T03:23:09.545Z,4.80
2022-08-18T03:24:02.844Z,5.70
2022-08-18T03:25:00.605Z,4.90
2022-08-18T03:26:00.589Z,5.20
2022-08-18T03:27:00.580Z,9.40
2022-08-18T03:28:00.597Z,6.50
2022-08-18T03:29:00.557Z,5.80
2022-08-18T03:30:00.549Z,5.30
2022-08-18T03:31:00.554Z,5.20
2022-08-18T03:32:00.529Z,5.60
2022-08-18T03:33:00.532Z,6.40
2022-08-18T03:34:00.508Z,5.70
2022-08-18T03:35:00.501Z,6.30
2022-08-18T03:36:00.491Z,5.10
2022-08-18T03:37:00.501Z,5.90
2022-08-18T03:38:00.488Z,5.30
2022-08-18T03:39:00.465Z,5.00
2022-08-18T03:40:00.526Z,6.00
2022-08-18T03:41:00.432Z,6.00
2022-08-18T03:42:01.967Z,6.10
2022-08-18T03:43:02.067Z,5.90
2022-08-18T03:44:00.394Z,5.70
2022-08-18T03:45:00.384Z,5.10
2022-08-18T03:46:01.384Z,6.00
2022-08-18T03:47:00.372Z,6.20
2022-08-18T03:48:00.377Z,6.60
2022-08-18T03:49:00.336Z,4.80
2022-08-18T03:50:00.336Z,7.10
2022-08-18T03:51:03.706Z,5.90
2022-08-18T03:52:01.566Z,6.60
2022-08-18T03:53:00.295Z,10.40
2022-08-18T03:54:00.307Z,6.80
2022-08-18T03:55:00.278Z,6.10
2022-08-18T03:56:00.267Z,5.30
2022-08-18T03:57:00.309Z,6.00
2022-08-18T03:58:00.270Z,5.60
2022-08-18T03:59:00.250Z,6.50
2022-08-18T04:00:00.232Z,5.50
2022-08-18T04:01:00.262Z,6.50
2022-08-18T04:02:00.361Z,4.90
2022-08-18T04:03:00.194Z,5.70
2022-08-18T04:04:00.192Z,6.80
2022-08-18T04:05:00.173Z,5.80
2022-08-18T04:06:00.173Z,5.70
2022-08-18T04:07:00.181Z,5.80
2022-08-18T04:08:00.142Z,6.80
2022-08-18T04:09:00.133Z,5.80
2022-08-18T04:10:00.156Z,6.10
2022-08-18T04:11:00.103Z,5.90
2022-08-18T04:12:00.092Z,5.50
2022-08-18T04:13:00.084Z,5.70
2022-08-18T04:14:00.092Z,7.30
2022-08-18T04:15:00.056Z,5.40
2022-08-18T04:16:00.051Z,6.00
2022-08-18T04:17:00.064Z,5.70
2022-08-18T04:18:04.089Z,6.30
2022-08-18T04:19:00.030Z,5.30
2022-08-18T04:20:00.009Z,6.90
2022-08-18T04:21:00.137Z,6.70
2022-08-18T04:21:59.977Z,6.40
2022-08-18T04:22:59.965Z,7.60
2022-08-18T04:23:59.969Z,5.60
2022-08-18T04:24:59.946Z,5.90
2022-08-18T04:25:59.936Z,5.30
2022-08-18T04:26:59.920Z,6.70
2022-08-18T04:27:59.920Z,7.60
2022-08-18T04:28:59.919Z,5.50
2022-08-18T04:29:59.891Z,5.60
2022-08-18T04:30:59.872Z,6.90
2022-08-18T04:31:59.881Z,8.10
2022-08-18T04:32:59.864Z,9.60
2022-08-18T04:33:59.870Z,8.10
2022-08-18T04:35:03.000Z,6.80
2022-08-18T04:35:59.835Z,6.30
2022-08-18T04:36:59.813Z,6.90
2022-08-18T04:37:59.823Z,6.10
2022-08-18T04:38:59.804Z,6.40
2022-08-18T04:39:59.838Z,8.00
2022-08-18T04:40:59.764Z,6.00
2022-08-18T04:41:59.756Z,6.60
2022-08-18T04:42:59.745Z,6.90
2022-08-18T04:43:59.759Z,6.20
2022-08-18T04:44:59.734Z,6.80
2022-08-18T04:45:59.718Z,6.70
2022-08-18T04:46:59.698Z,5.60
2022-08-18T04:47:59.700Z,5.20
2022-08-18T04:48:59.698Z,5.40
2022-08-18T04:49:59.679Z,5.70
2022-08-18T04:50:59.666Z,6.20
2022-08-18T04:52:37.159Z,5.20
2022-08-18T04:53:00.640Z,6.00
2022-08-18T04:53:59.651Z,5.60
2022-08-18T04:54:59.614Z,6.20
2022-08-18T04:55:59.609Z,5.10
2022-08-18T04:56:59.592Z,4.80
2022-08-18T04:57:59.592Z,7.70
2022-08-18T04:58:59.583Z,4.50
2022-08-18T04:59:59.562Z,6.60
2022-08-18T05:00:59.571Z,6.10
2022-08-18T05:01:59.540Z,5.10
2022-08-18T05:02:59.525Z,5.80
2022-08-18T05:03:59.534Z,6.90
2022-08-18T05:04:59.515Z,5.00
2022-08-18T05:05:59.505Z,4.80
2022-08-18T05:06:59.484Z,5.70
2022-08-18T05:07:59.480Z,6.00
2022-08-18T05:08:59.479Z,7.70
2022-08-18T05:09:59.464Z,7.00
2022-08-18T05:11:03.867Z,5.20
2022-08-18T05:12:00.427Z,6.90
2022-08-18T05:12:59.417Z,5.70
2022-08-18T05:13:59.427Z,4.70
2022-08-18T05:14:59.391Z,5.90
2022-08-18T05:16:10.886Z,5.50
2022-08-18T05:17:00.369Z,4.90
2022-08-18T05:17:59.370Z,5.10
2022-08-18T05:18:59.374Z,4.90
2022-08-18T05:19:59.339Z,5.30
2022-08-18T05:20:59.332Z,5.90
2022-08-18T05:22:00.014Z,4.70
2022-08-18T05:22:59.311Z,4.60
2022-08-18T05:23:59.322Z,5.10
2022-08-18T05:24:59.280Z,5.60
2022-08-18T05:25:59.285Z,4.70
2022-08-18T05:26:59.274Z,4.40
2022-08-18T05:27:59.262Z,5.20
2022-08-18T05:29:17.810Z,4.50
2022-08-18T05:30:00.233Z,5.20
2022-08-18T05:31:00.660Z,5.50
2022-08-18T05:31:59.207Z,5.00
2022-08-18T05:32:59.196Z,4.70
2022-08-18T05:33:59.204Z,5.30
2022-08-18T05:34:59.175Z,4.50
2022-08-18T05:35:59.165Z,4.50
2022-08-18T05:36:59.162Z,4.40
2022-08-18T05:37:59.158Z,4.50
2022-08-18T05:38:59.147Z,4.30
2022-08-18T05:39:59.175Z,4.70
2022-08-18T05:40:59.107Z,4.30
2022-08-18T05:41:59.091Z,4.20
2022-08-18T05:42:59.091Z,5.60
2022-08-18T05:43:59.089Z,4.40
2022-08-18T05:44:59.061Z,4.30
2022-08-18T05:45:59.050Z,5.10
2022-08-18T05:46:59.052Z,4.60
2022-08-18T05:47:59.051Z,5.70
2022-08-18T05:48:59.033Z,4.90
2022-08-18T05:49:59.012Z,4.30
2022-08-18T05:50:59.004Z,4.40
2022-08-18T05:51:58.983Z,5.40
2022-08-18T05:52:58.997Z,5.50
2022-08-18T05:53:58.972Z,4.50
2022-08-18T05:54:58.954Z,5.60
2022-08-18T05:55:58.942Z,5.20
2022-08-18T05:56:58.924Z,4.40
2022-08-18T05:57:58.915Z,4.40
2022-08-18T05:58:58.923Z,4.10
2022-08-18T05:59:58.905Z,4.20
2022-08-18T06:00:59.755Z,4.60
2022-08-18T06:01:58.866Z,4.50
2022-08-18T06:02:58.898Z,5.20
2022-08-18T06:03:58.867Z,4.20
2022-08-18T06:04:58.846Z,4.70
2022-08-18T06:05:58.828Z,4.80
2022-08-18T06:06:58.818Z,5.00
2022-08-18T06:07:58.830Z,4.00
2022-08-18T06:08:58.808Z,4.60
2022-08-18T06:09:58.780Z,4.20
2022-08-18T06:10:58.777Z,4.80
2022-08-18T06:11:58.769Z,4.90
2022-08-18T06:12:58.772Z,5.20
2022-08-18T06:13:59.884Z,4.90
2022-08-18T06:14:58.733Z,4.50
2022-08-18T06:15:58.721Z,4.40
2022-08-18T06:16:58.735Z,4.00
2022-08-18T06:17:58.712Z,5.30
2022-08-18T06:18:58.692Z,4.60
2022-08-18T06:19:58.683Z,4.70
2022-08-18T06:20:58.674Z,4.40
2022-08-18T06:21:58.658Z,4.30
2022-08-18T06:22:58.663Z,4.20
2022-08-18T06:23:58.634Z,4.50
2022-08-18T06:24:58.626Z,4.70
2022-08-18T06:25:58.606Z,3.80
2022-08-18T06:26:58.615Z,4.10
2022-08-18T06:27:58.596Z,4.00
2022-08-18T06:28:58.584Z,4.10
2022-08-18T06:29:58.567Z,4.20
2022-08-18T06:30:58.557Z,4.10
2022-08-18T06:31:58.565Z,4.30
2022-08-18T06:32:58.540Z,4.60
2022-08-18T06:33:58.519Z,4.80
2022-08-18T06:34:58.509Z,4.00
2022-08-18T06:35:58.500Z,4.10
2022-08-18T06:36:58.508Z,4.50
2022-08-18T06:37:58.489Z,3.90
2022-08-18T06:38:58.470Z,4.10
2022-08-18T06:39:58.520Z,4.00
2022-08-18T06:40:58.449Z,3.90
2022-08-18T06:41:58.442Z,4.10
2022-08-18T06:42:59.849Z,4.70
2022-08-18T06:43:58.413Z,4.70
2022-08-18T06:44:58.420Z,4.30
2022-08-18T06:45:58.393Z,3.90
2022-08-18T06:46:58.403Z,4.90
2022-08-18T06:47:58.376Z,4.50
2022-08-18T06:48:58.362Z,4.50
2022-08-18T06:49:58.357Z,5.50
2022-08-18T06:50:58.345Z,6.40
2022-08-18T06:51:58.344Z,3.90
2022-08-18T06:52:58.316Z,7.20
2022-08-18T06:53:58.305Z,5.40
2022-08-18T06:54:58.305Z,6.50
2022-08-18T06:55:58.284Z,3.90
2022-08-18T06:56:58.296Z,5.20
2022-08-18T06:57:58.277Z,4.20
2022-08-18T06:58:58.259Z,4.60
2022-08-18T06:59:58.238Z,4.80
2022-08-18T07:00:58.386Z,4.40
2022-08-18T07:01:58.238Z,5.30
2022-08-18T07:02:58.991Z,5.80
2022-08-18T07:03:58.201Z,5.20
2022-08-18T07:04:58.195Z,4.90
2022-08-18T07:05:58.170Z,4.80
2022-08-18T07:06:58.179Z,4.50
2022-08-18T07:07:58.160Z,5.20
2022-08-18T07:08:58.141Z,4.90
2022-08-18T07:09:58.130Z,6.30
2022-08-18T07:10:58.133Z,4.00
2022-08-18T07:11:58.122Z,5.50
2022-08-18T07:12:58.103Z,5.90
2022-08-18T07:14:15.460Z,5.60
2022-08-18T07:14:59.085Z,6.30
2022-08-18T07:15:58.066Z,6.40
2022-08-18T07:16:59.795Z,5.10
2022-08-18T07:17:59.073Z,6.50
2022-08-18T07:18:58.036Z,4.60
2022-08-18T07:19:58.017Z,7.00
2022-08-18T07:20:58.436Z,5.40
2022-08-18T07:21:58.007Z,4.40
2022-08-18T07:22:57.988Z,5.40
2022-08-18T07:24:23.304Z,6.70
2022-08-18T07:25:03.107Z,4.60
2022-08-18T07:25:58.959Z,4.30
2022-08-18T07:26:57.961Z,5.90
2022-08-18T07:27:57.939Z,5.00
2022-08-18T07:28:57.931Z,5.40
2022-08-18T07:29:58.701Z,7.00
2022-08-18T07:31:15.931Z,4.20
2022-08-18T07:31:58.910Z,5.20
2022-08-18T07:32:57.892Z,8.80
2022-08-18T07:33:57.863Z,5.50
2022-08-18T07:34:57.873Z,4.90
2022-08-18T07:35:57.872Z,5.10
2022-08-18T07:36:57.860Z,6.30
2022-08-18T07:37:58.611Z,6.70
2022-08-18T07:38:57.823Z,5.80
2022-08-18T07:39:57.921Z,6.70
2022-08-18T07:40:57.794Z,5.40
2022-08-18T07:41:57.795Z,6.20
2022-08-18T07:43:01.087Z,6.80
2022-08-18T07:43:58.574Z,7.00
2022-08-18T07:44:58.526Z,5.40
2022-08-18T07:45:57.746Z,7.00
2022-08-18T07:46:57.748Z,8.20
2022-08-18T07:47:57.716Z,6.30
2022-08-18T07:48:57.708Z,7.10
2022-08-18T07:50:18.317Z,6.10
2022-08-18T07:51:00.836Z,7.40
2022-08-18T07:51:57.689Z,7.00
2022-08-18T07:52:57.668Z,7.90
2022-08-18T07:53:57.649Z,6.70
2022-08-18T07:54:57.647Z,6.60
2022-08-18T07:55:57.631Z,6.50
2022-08-18T07:56:58.381Z,7.30
2022-08-18T07:57:58.586Z,7.90
2022-08-18T07:58:57.601Z,6.50
2022-08-18T07:59:57.590Z,5.10
2022-08-18T08:01:00.031Z,7.20
2022-08-18T08:01:57.722Z,5.90
2022-08-18T08:02:57.560Z,8.30
2022-08-18T08:03:57.545Z,5.50
2022-08-18T08:04:57.543Z,6.20
2022-08-18T08:05:57.525Z,7.00
2022-08-18T08:07:22.814Z,9.00
2022-08-18T08:07:58.502Z,7.40
2022-08-18T08:08:57.494Z,4.80
2022-08-18T08:09:57.475Z,6.30
2022-08-18T08:10:57.473Z,5.20
2022-08-18T08:11:57.467Z,5.50
2022-08-18T08:13:08.264Z,6.40
2022-08-18T08:13:58.437Z,7.40
2022-08-18T08:14:57.427Z,6.40
2022-08-18T08:15:57.411Z,7.70
2022-08-18T08:16:57.427Z,5.90
2022-08-18T08:17:57.418Z,9.90
2022-08-18T08:18:57.428Z,6.20
2022-08-18T08:20:00.402Z,7.00
2022-08-18T08:20:57.361Z,4.90
2022-08-18T08:21:57.360Z,5.30
2022-08-18T08:22:57.347Z,5.70
2022-08-18T08:23:57.322Z,5.60
2022-08-18T08:24:57.319Z,5.40
2022-08-18T08:25:57.681Z,5.70
2022-08-18T08:26:57.304Z,5.20
2022-08-18T08:27:57.291Z,7.40
2022-08-18T08:28:57.273Z,4.80
2022-08-18T08:29:57.254Z,7.30
2022-08-18T08:31:13.596Z,5.10
2022-08-18T08:31:58.268Z,6.30
2022-08-18T08:32:57.233Z,5.80
2022-08-18T08:33:57.237Z,6.70
2022-08-18T08:34:57.207Z,5.80
2022-08-18T08:35:57.195Z,7.20
2022-08-18T08:36:57.208Z,8.30
2022-08-18T08:37:57.177Z,7.30
2022-08-18T08:38:57.176Z,7.00
2022-08-18T08:39:58.091Z,7.90
2022-08-18T08:40:57.145Z,4.50
2022-08-18T08:41:57.902Z,5.60
2022-08-18T08:42:58.127Z,5.30
2022-08-18T08:43:57.107Z,7.10
2022-08-18T08:44:59.432Z,8.30
2022-08-18T08:45:57.821Z,8.60
2022-08-18T08:46:57.097Z,8.20
2022-08-18T08:48:03.000Z,7.10
2022-08-18T08:48:58.058Z,6.20
2022-08-18T08:50:00.477Z,8.00
2022-08-18T08:50:57.042Z,10.10
2022-08-18T08:51:57.032Z,7.50
2022-08-18T08:52:57.565Z,7.70
2022-08-18T08:53:56.992Z,9.20
2022-08-18T08:54:56.992Z,7.40
2022-08-18T08:56:02.026Z,7.90
2022-08-18T08:56:57.982Z,6.60
2022-08-18T08:57:56.963Z,6.10
2022-08-18T08:58:57.730Z,9.20
2022-08-18T08:59:56.925Z,9.20
2022-08-18T09:00:56.923Z,11.00
2022-08-18T09:01:56.985Z,9.70
2022-08-18T09:02:56.896Z,10.50
2022-08-18T09:03:56.896Z,9.30
2022-08-18T09:05:08.692Z,9.00
2022-08-18T09:05:57.937Z,8.20
2022-08-18T09:06:56.987Z,8.90
2022-08-18T09:07:56.848Z,7.60
2022-08-18T09:08:56.849Z,8.10
2022-08-18T09:09:56.846Z,9.70
2022-08-18T09:10:56.827Z,9.30
2022-08-18T09:11:56.814Z,7.90
2022-08-18T09:12:56.791Z,8.50
2022-08-18T09:13:57.561Z,6.40
2022-08-18T09:14:56.867Z,6.80
2022-08-18T09:15:56.760Z,8.50
2022-08-18T09:16:56.761Z,8.60
2022-08-18T09:17:56.742Z,7.60
2022-08-18T09:18:56.731Z,7.10
2022-08-18T09:19:56.722Z,8.20
2022-08-18T09:20:56.703Z,7.40
2022-08-18T09:21:56.704Z,11.20
2022-08-18T09:22:56.686Z,7.60
2022-08-18T09:23:56.674Z,8.20
2022-08-18T09:24:56.676Z,8.70
2022-08-18T09:25:56.655Z,7.40
2022-08-18T09:26:56.656Z,9.70
2022-08-18T09:28:10.491Z,5.40
2022-08-18T09:28:57.662Z,6.00
2022-08-18T09:29:56.626Z,7.40
2022-08-18T09:30:57.397Z,8.50
2022-08-18T09:31:56.597Z,5.90
2022-08-18T09:32:56.567Z,7.00
2022-08-18T09:33:56.557Z,7.90
2022-08-18T09:34:57.328Z,6.30
2022-08-18T09:35:57.843Z,8.10
2022-08-18T09:36:56.619Z,9.70
2022-08-18T09:37:56.518Z,6.80
2022-08-18T09:38:56.508Z,9.80
2022-08-18T09:39:56.491Z,7.70
2022-08-18T09:41:03.204Z,7.20
2022-08-18T09:41:57.490Z,8.90
2022-08-18T09:42:57.011Z,6.80
2022-08-18T09:43:56.452Z,8.70
2022-08-18T09:44:56.442Z,10.20
2022-08-18T09:45:57.597Z,7.50
2022-08-18T09:46:56.431Z,9.40
2022-08-18T09:47:57.135Z,9.50
2022-08-18T09:48:57.183Z,10.20
2022-08-18T09:49:56.384Z,7.40
2022-08-18T09:50:56.399Z,10.30
2022-08-18T09:51:56.388Z,9.00
2022-08-18T09:52:56.608Z,8.10
2022-08-18T09:53:57.027Z,9.70
2022-08-18T09:54:56.325Z,9.00
2022-08-18T09:56:00.812Z,7.70
2022-08-18T09:56:57.959Z,7.80
2022-08-18T09:57:56.306Z,9.90
2022-08-18T09:58:56.278Z,10.30
2022-08-18T09:59:57.057Z,9.60
2022-08-18T10:00:56.270Z,8.60
2022-08-18T10:01:56.816Z,10.30
2022-08-18T10:02:57.118Z,9.90
2022-08-18T10:03:56.371Z,10.30
2022-08-18T10:04:56.228Z,12.40
2022-08-18T10:05:56.241Z,13.00
2022-08-18T10:06:56.216Z,10.10
2022-08-18T10:07:56.972Z,9.90
2022-08-18T10:08:56.185Z,11.00
2022-08-18T10:09:56.174Z,10.90
2022-08-18T10:10:59.776Z,8.40
2022-08-18T10:11:57.522Z,10.40
2022-08-18T10:12:56.142Z,8.50
2022-08-18T10:13:56.214Z,10.20
2022-08-18T10:14:56.133Z,10.80
2022-08-18T10:15:56.107Z,8.80
2022-08-18T10:17:21.757Z,9.20
2022-08-18T10:17:58.050Z,8.90
2022-08-18T10:18:56.074Z,11.40
2022-08-18T10:19:56.082Z,8.80
2022-08-18T10:20:56.048Z,9.10
2022-08-18T10:21:56.056Z,9.40
2022-08-18T10:22:56.036Z,9.30
2022-08-18T10:24:14.530Z,11.10
2022-08-18T10:24:57.006Z,8.50
2022-08-18T10:25:56.046Z,9.50
2022-08-18T10:26:55.978Z,9.70
2022-08-18T10:27:55.977Z,8.10
2022-08-18T10:28:55.961Z,10.10
2022-08-18T10:29:55.949Z,9.10
2022-08-18T10:30:57.418Z,10.10
2022-08-18T10:31:57.658Z,10.70
2022-08-18T10:32:56.485Z,8.60
2022-08-18T10:33:55.902Z,9.30
2022-08-18T10:34:55.895Z,8.70
2022-08-18T10:35:55.891Z,9.50
2022-08-18T10:36:59.003Z,11.20
2022-08-18T10:37:55.862Z,8.40
2022-08-18T10:38:55.844Z,8.90
2022-08-18T10:39:55.891Z,10.00
2022-08-18T10:40:55.878Z,10.00
2022-08-18T10:41:55.824Z,9.10
2022-08-18T10:42:56.144Z,10.40
2022-08-18T10:44:56.788Z,9.60
2022-08-18T10:46:24.673Z,9.90
2022-08-18T10:46:56.756Z,9.80
2022-08-18T10:47:55.766Z,9.50
2022-08-18T10:48:55.745Z,10.00
2022-08-18T10:49:55.733Z,15.00
2022-08-18T10:50:55.728Z,12.40
2022-08-18T10:51:59.435Z,11.40
2022-08-18T10:53:24.028Z,9.00
2022-08-18T10:53:56.689Z,10.00
2022-08-18T10:54:55.671Z,9.50
2022-08-18T10:55:55.679Z,9.70
2022-08-18T10:56:55.780Z,9.70
2022-08-18T10:57:55.643Z,10.20
2022-08-18T10:58:55.645Z,10.70
2022-08-18T10:59:56.403Z,11.30
2022-08-18T11:00:55.631Z,9.20
2022-08-18T11:01:55.620Z,9.50
2022-08-18T11:03:02.612Z,14.80
2022-08-18T11:03:56.778Z,10.40
2022-08-18T11:04:59.084Z,11.90
2022-08-18T11:05:55.578Z,10.10
2022-08-18T11:06:55.543Z,12.50
2022-08-18T11:07:58.507Z,10.40
2022-08-18T11:08:57.702Z,10.90
2022-08-18T11:10:13.249Z,10.60
2022-08-18T11:11:27.411Z,9.90
2022-08-18T11:12:57.104Z,9.10
2022-08-18T11:13:55.468Z,10.10
2022-08-18T11:14:55.463Z,9.70
2022-08-18T11:15:55.467Z,10.50
2022-08-18T11:16:55.442Z,9.80
2022-08-18T11:17:55.429Z,12.80
2022-08-18T11:18:55.412Z,11.10
2022-08-18T11:19:55.430Z,12.80
2022-08-18T11:20:55.388Z,10.50
2022-08-18T11:21:55.422Z,12.90
2022-08-18T11:22:55.903Z,11.10
2022-08-18T11:23:55.381Z,11.00
2022-08-18T11:24:55.356Z,10.50
2022-08-18T11:25:55.338Z,11.20
2022-08-18T11:26:55.411Z,13.30
2022-08-18T11:27:55.351Z,11.80
2022-08-18T11:28:55.298Z,10.90
2022-08-18T11:29:55.309Z,11.20
2022-08-18T11:30:55.280Z,11.90
2022-08-18T11:31:55.282Z,13.10
2022-08-18T11:32:55.513Z,14.10
2022-08-18T11:33:55.255Z,11.40
2022-08-18T11:34:55.255Z,12.20
2022-08-18T11:35:55.234Z,11.90
2022-08-18T11:36:55.203Z,11.00
2022-08-18T11:37:55.206Z,14.00
2022-08-18T11:38:55.193Z,13.30
2022-08-18T11:39:55.290Z,12.70
2022-08-18T11:41:12.631Z,12.30
2022-08-18T11:41:57.008Z,12.10
2022-08-18T11:42:55.148Z,13.60
2022-08-18T11:43:55.165Z,12.20
2022-08-18T11:44:55.141Z,12.40
2022-08-18T11:45:55.117Z,12.20
2022-08-18T11:46:55.100Z,12.80
2022-08-18T11:47:55.098Z,13.90
2022-08-18T11:48:55.088Z,14.20
2022-08-18T11:49:55.099Z,12.80
2022-08-18T11:50:55.063Z,14.00
2022-08-18T11:51:55.052Z,13.90
2022-08-18T11:52:55.184Z,13.20
2022-08-18T11:53:58.683Z,14.10
2022-08-18T11:54:55.045Z,13.80
2022-08-18T11:55:55.124Z,13.50
2022-08-18T11:56:54.991Z,17.00
2022-08-18T11:57:56.392Z,13.00
2022-08-18T11:58:54.971Z,13.70
2022-08-18T12:01:57.894Z,13.20
2022-08-18T12:02:55.235Z,13.20
2022-08-18T12:03:54.923Z,14.90
2022-08-18T12:04:54.925Z,14.40
2022-08-18T12:05:55.772Z,14.00
2022-08-18T12:06:54.886Z,14.50
2022-08-18T12:07:57.739Z,13.90
2022-08-18T12:08:57.754Z,17.80
2022-08-18T12:10:18.433Z,15.90
2022-08-18T12:10:55.838Z,14.40
2022-08-18T12:11:54.838Z,13.70
2022-08-18T12:12:55.694Z,14.20
2022-08-18T12:13:54.807Z,16.60
2022-08-18T12:15:00.580Z,17.70
2022-08-18T12:15:55.790Z,15.10
2022-08-18T12:16:54.770Z,14.90
2022-08-18T12:17:54.768Z,15.20
2022-08-18T12:18:54.758Z,15.90
2022-08-18T12:19:54.761Z,15.10
2022-08-18T12:20:54.730Z,15.20
2022-08-18T12:21:54.731Z,15.00
2022-08-18T12:22:54.986Z,14.30
2022-08-18T12:23:56.163Z,15.20
2022-08-18T12:24:54.703Z,15.10
2022-08-18T12:25:54.816Z,14.60
2022-08-18T12:26:54.686Z,17.40
2022-08-18T12:27:54.667Z,15.80
2022-08-18T12:28:54.645Z,14.80
2022-08-18T12:29:55.654Z,15.40
2022-08-18T12:31:55.617Z,16.60
2022-08-18T12:32:56.419Z,14.60
2022-08-18T12:34:00.942Z,14.80
2022-08-18T12:34:55.596Z,16.50
2022-08-18T12:35:54.578Z,15.90
2022-08-18T12:36:54.558Z,14.90
2022-08-18T12:38:03.489Z,15.70
2022-08-18T12:38:56.076Z,15.40
2022-08-18T12:39:54.608Z,14.30
2022-08-18T12:40:54.519Z,15.00
2022-08-18T12:41:54.516Z,15.50
2022-08-18T12:42:55.601Z,14.60
2022-08-18T12:44:55.482Z,14.50
2022-08-18T12:45:54.460Z,14.60
2022-08-18T12:46:54.452Z,16.00
2022-08-18T12:47:54.447Z,15.10
2022-08-18T12:48:54.497Z,15.40
2022-08-18T12:49:54.434Z,15.00
2022-08-18T12:50:59.882Z,15.60
2022-08-18T12:51:55.781Z,15.60
2022-08-18T12:52:54.676Z,16.70
2022-08-18T12:53:58.161Z,14.90
2022-08-18T12:54:56.086Z,16.20
2022-08-18T12:55:54.353Z,15.40
2022-08-18T12:56:54.344Z,15.20
2022-08-18T12:57:54.334Z,16.90
2022-08-18T12:58:54.319Z,14.50
2022-08-18T12:59:54.327Z,17.60
2022-08-18T13:00:54.322Z,15.10
2022-08-18T13:01:58.316Z,19.20
2022-08-18T13:02:54.453Z,16.60
2022-08-18T13:04:12.455Z,14.50
2022-08-18T13:04:56.079Z,15.60
2022-08-18T13:05:55.713Z,15.50
2022-08-18T13:06:59.827Z,15.60
2022-08-18T13:07:55.291Z,15.90
2022-08-18T13:08:54.209Z,13.90
2022-08-18T13:09:54.629Z,14.20
2022-08-18T13:10:56.322Z,15.10
2022-08-18T13:11:54.170Z,13.60
2022-08-18T13:12:54.159Z,14.40
2022-08-18T13:13:56.002Z,13.80
2022-08-18T13:14:54.154Z,13.70
2022-08-18T13:15:58.132Z,15.20
2022-08-18T13:16:55.189Z,15.20
2022-08-18T13:17:55.250Z,15.90
2022-08-18T13:18:54.103Z,15.70
2022-08-18T13:19:54.116Z,13.90